Time;durP1;ratioP1;P1;durP2;ratioP2;P2;SDS_P1;SDS_P2;PMS_P1;PMS_P2;Temp;Humidity;BMP_temperature;BMP_pressure;BME280_temperature;BME280_humidity;BME280_pressure;Samples;Min_cycle;Max_cycle;Signal;HPM_P1;HPM_P2
2023/06/18 00:01:00;;;;;;;11.93;8.35;;;;;;;28.64;84.99;97613.97;4980054;28;20050;-68
2023/06/18 00:03:30;;;;;;;12.13;8.02;;;;;;;28.64;84.96;97616.72;4977980;28;20054;-68
2023/06/18 00:06:01;;;;;;;13.95;9.63;;;;;;;28.65;84.62;97629.22;4976452;28;20054;-68
2023/06/18 00:08:30;;;;;;;11.73;8.63;;;;;;;28.64;84.68;97619.44;4968290;28;20479;-68
2023/06/18 00:10:59;;;;;;;15.13;8.75;;;;;;;28.63;84.50;97626.03;4969587;28;20042;-68
2023/06/18 00:13:28;;;;;;;16.40;8.80;;;;;;;28.62;84.65;97619.78;4975551;28;20391;-68
2023/06/18 00:15:58;;;;;;;10.07;8.95;;;;;;;28.62;83.96;97625.25;4964915;28;20453;-68
2023/06/18 00:18:27;;;;;;;15.52;10.10;;;;;;;28.61;83.92;97631.81;4951876;28;20058;-68
2023/06/18 00:20:59;;;;;;;15.55;9.45;;;;;;;28.62;83.77;97629.88;4977998;28;20136;-68
2023/06/18 00:23:28;;;;;;;13.20;8.98;;;;;;;28.63;83.94;97632.28;4975492;28;20046;-68
2023/06/18 00:25:57;;;;;;;13.98;9.43;;;;;;;28.65;84.15;97626.47;4975349;28;20054;-68
2023/06/18 00:28:28;;;;;;;12.98;9.07;;;;;;;28.66;83.44;97637.06;4965817;28;20374;-67
2023/06/18 00:30:58;;;;;;;14.80;8.65;;;;;;;28.68;83.98;97634.00;4963177;28;20061;-68
2023/06/18 00:33:27;;;;;;;13.98;9.75;;;;;;;28.70;84.00;97642.63;4964777;28;20042;-68
2023/06/18 00:35:57;;;;;;;13.20;8.68;;;;;;;28.72;83.66;97643.13;4954947;28;20414;-67
2023/06/18 00:38:28;;;;;;;16.15;9.98;;;;;;;28.79;83.69;97648.81;4968287;28;20146;-67
2023/06/18 00:40:57;;;;;;;18.48;10.70;;;;;;;28.85;84.06;97651.00;4969232;28;20046;-67
2023/06/18 00:43:27;;;;;;;12.68;9.02;;;;;;;28.88;83.46;97646.81;4942043;28;20050;-68
2023/06/18 00:46:00;;;;;;;17.70;9.30;;;;;;;28.92;83.46;97650.44;4965233;28;20057;-68
2023/06/18 00:48:35;;;;;;;15.43;9.55;;;;;;;28.94;83.00;97651.69;4967255;28;20597;-67
2023/06/18 00:51:05;;;;;;;15.75;10.57;;;;;;;28.99;79.88;97650.66;4977569;28;20558;-69
2023/06/18 00:53:34;;;;;;;13.68;9.23;;;;;;;29.03;80.02;97657.06;4963335;28;20051;-67
2023/06/18 00:56:04;;;;;;;18.27;9.40;;;;;;;29.09;79.17;97654.91;4968342;28;20066;-67
2023/06/18 00:58:35;;;;;;;16.35;10.32;;;;;;;29.13;79.42;97651.16;4969237;28;20805;-67
2023/06/18 01:01:08;;;;;;;15.05;9.75;;;;;;;29.19;79.14;97649.81;4972736;28;20065;-67
2023/06/18 01:03:38;;;;;;;15.30;10.68;;;;;;;29.24;78.40;97649.59;4982859;28;20050;-67
2023/06/18 01:06:17;;;;;;;19.60;10.40;;;;;;;29.29;76.76;97656.75;4964843;28;20046;-67
2023/06/18 01:08:48;;;;;;;20.80;11.70;;;;;;;29.36;76.62;97651.56;4983018;28;20670;-67
2023/06/18 01:11:21;;;;;;;20.35;11.27;;;;;;;29.40;75.14;97649.72;4970386;28;20046;-67
2023/06/18 01:13:52;;;;;;;24.83;13.50;;;;;;;29.45;74.20;97653.03;4980611;28;20133;-67
2023/06/18 01:16:24;;;;;;;23.17;13.45;;;;;;;29.53;74.70;97654.06;4969338;28;20054;-68
2023/06/18 01:18:56;;;;;;;26.60;12.95;;;;;;;29.58;74.89;97653.03;4969214;28;20112;-67
2023/06/18 01:21:30;;;;;;;25.75;14.25;;;;;;;29.64;74.80;97651.69;4969872;28;20141;-67
2023/06/18 01:24:23;;;;;;;25.13;13.85;;;;;;;29.69;74.70;97646.00;4969784;28;20049;-67
2023/06/18 01:26:57;;;;;;;25.90;14.05;;;;;;;29.76;74.99;97654.38;4968730;28;20511;-69
2023/06/18 01:29:27;;;;;;;24.27;13.45;;;;;;;29.83;74.57;97657.31;4952526;28;20046;-68
2023/06/18 01:31:57;;;;;;;31.77;15.07;;;;;;;29.89;73.98;97661.47;4976376;28;20053;-68
2023/06/18 01:34:27;;;;;;;32.83;14.23;;;;;;;29.95;74.52;97662.81;4968101;28;20490;-68
2023/06/18 01:37:09;;;;;;;27.15;16.83;;;;;;;30.07;74.53;97670.19;4959756;28;20486;-68
2023/06/18 01:40:06;;;;;;;27.27;14.70;;;;;;;30.18;74.71;97660.38;4961337;28;20054;-67
2023/06/18 01:42:40;;;;;;;37.70;17.92;;;;;;;30.33;71.54;97674.09;4976231;28;20289;-67
2023/06/18 01:45:16;;;;;;;33.10;19.58;;;;;;;30.59;69.99;97670.16;4964513;28;20054;-67
2023/06/18 01:47:46;;;;;;;34.42;17.38;;;;;;;30.83;70.55;97670.06;4970588;28;20062;-67
2023/06/18 01:50:17;;;;;;;37.42;18.45;;;;;;;31.06;69.86;97657.44;4979611;28;20169;-67
2023/06/18 01:52:49;;;;;;;38.97;20.27;;;;;;;31.61;66.96;97669.34;4969796;28;20043;-67
2023/06/18 01:55:20;;;;;;;42.22;21.65;;;;;;;31.94;64.86;97666.22;4969567;28;20486;-67
2023/06/18 01:57:50;;;;;;;40.65;19.27;;;;;;;32.62;64.28;97673.97;4951793;28;20047;-67
2023/06/18 02:00:20;;;;;;;39.88;20.27;;;;;;;33.14;62.73;97684.38;4969254;28;20054;-67
2023/06/18 02:02:51;;;;;;;39.08;21.50;;;;;;;33.70;60.93;97685.38;4967572;28;20162;-67
2023/06/18 02:05:21;;;;;;;47.08;23.27;;;;;;;34.00;59.14;97677.19;4954143;28;20065;-68
2023/06/18 02:07:50;;;;;;;48.92;23.02;;;;;;;34.36;58.18;97683.19;4968374;28;20743;-67
2023/06/18 02:10:19;;;;;;;44.42;21.85;;;;;;;34.90;57.08;97688.97;4968751;28;20220;-67
2023/06/18 02:12:50;;;;;;;50.15;24.30;;;;;;;34.68;55.24;97689.91;4981896;28;20042;-67
2023/06/18 02:15:20;;;;;;;46.47;24.45;;;;;;;34.89;54.84;97701.16;4968906;28;20157;-68
2023/06/18 02:17:50;;;;;;;45.20;23.67;;;;;;;34.47;54.98;97695.94;4968300;28;20565;-67
2023/06/18 02:20:21;;;;;;;44.38;22.92;;;;;;;35.05;55.30;97695.44;4969676;28;20246;-68
2023/06/18 02:22:52;;;;;;;39.58;21.63;;;;;;;35.21;54.62;97703.47;4970485;28;20165;-67
2023/06/18 02:25:28;;;;;;;44.10;23.00;;;;;;;35.30;55.92;97703.97;4969074;28;22597;-68
2023/06/18 02:28:06;;;;;;;42.20;21.00;;;;;;;35.41;54.55;97704.84;4979216;28;20054;-68
2023/06/18 02:30:36;;;;;;;44.85;19.05;;;;;;;35.50;51.44;97713.56;4968509;28;20442;-68
2023/06/18 02:33:10;;;;;;;41.42;18.02;;;;;;;35.88;49.54;97712.34;4978996;28;20146;-67
2023/06/18 02:35:40;;;;;;;31.13;16.95;;;;;;;36.33;50.35;97719.38;4969839;28;20054;-68
2023/06/18 02:38:10;;;;;;;48.17;17.83;;;;;;;36.28;51.75;97717.75;4964494;28;20077;-67
2023/06/18 02:40:40;;;;;;;33.22;14.65;;;;;;;36.56;48.47;97713.56;4979987;28;20120;-67
2023/06/18 02:43:10;;;;;;;31.60;14.23;;;;;;;36.22;46.50;97707.47;4963556;28;20046;-68
2023/06/18 02:45:40;;;;;;;33.38;14.45;;;;;;;36.42;46.10;97708.78;4951967;28;20153;-69
2023/06/18 02:48:10;;;;;;;23.85;13.00;;;;;;;36.61;46.05;97721.47;4966452;28;20053;-68
2023/06/18 02:50:40;;;;;;;30.83;13.90;;;;;;;36.59;47.71;97721.06;4950837;28;20554;-68
2023/06/18 02:53:09;;;;;;;33.60;14.57;;;;;;;36.69;47.90;97723.88;4967029;28;20128;-68
2023/06/18 02:55:41;;;;;;;29.17;14.20;;;;;;;36.24;47.03;97725.22;4970576;28;20050;-68
2023/06/18 02:58:36;;;;;;;24.70;13.02;;;;;;;36.90;47.50;97717.66;4973384;28;20153;-68
2023/06/18 03:01:06;;;;;;;22.27;11.57;;;;;;;37.11;45.48;97714.19;4976144;28;20085;-69
2023/06/18 03:03:41;;;;;;;24.50;11.15;;;;;;;37.23;44.06;97711.84;4977976;28;20125;-68
2023/06/18 03:06:11;;;;;;;24.65;11.35;;;;;;;37.30;45.63;97714.63;4966414;28;20109;-68
2023/06/18 03:08:41;;;;;;;18.60;9.93;;;;;;;37.16;43.40;97714.59;4968624;28;20129;-68
2023/06/18 03:11:10;;;;;;;20.27;9.20;;;;;;;37.09;45.05;97720.09;4974270;28;20058;-68
2023/06/18 03:13:42;;;;;;;;;;;;;;;37.02;44.10;97716.50;4965981;28;20046;-68
2023/06/18 03:16:12;;;;;;;22.35;10.52;;;;;;;36.52;45.11;97712.75;4952759;28;20272;-69
2023/06/18 03:18:42;;;;;;;20.30;9.07;;;;;;;36.27;45.74;97713.41;4965790;28;20483;-68
2023/06/18 03:21:12;;;;;;;16.35;8.68;;;;;;;36.75;46.53;97716.81;4967800;28;20505;-69
2023/06/18 03:23:43;;;;;;;16.73;8.27;;;;;;;36.85;46.55;97712.53;4966306;28;20046;-68
2023/06/18 03:26:13;;;;;;;22.20;8.93;;;;;;;36.77;48.64;97710.91;4959688;28;20046;-68
2023/06/18 03:28:42;;;;;;;25.42;11.18;;;;;;;37.11;46.71;97708.66;4962983;28;20051;-68
2023/06/18 03:31:11;;;;;;;26.00;12.60;;;;;;;36.89;47.69;97699.53;4944433;28;20348;-69
2023/06/18 03:33:42;;;;;;;20.58;12.55;;;;;;;37.20;45.75;97704.34;4967012;28;20039;-69
2023/06/18 03:36:15;;;;;;;20.55;10.40;;;;;;;36.83;46.04;97703.81;4968408;28;20054;-69
2023/06/18 03:38:45;;;;;;;22.52;10.27;;;;;;;37.13;48.25;97720.13;4966897;28;20566;-68
2023/06/18 03:41:16;;;;;;;20.75;8.40;;;;;;;37.51;44.47;97713.06;4967373;28;20399;-68
2023/06/18 03:43:45;;;;;;;14.82;8.85;;;;;;;37.41;45.46;97709.09;4944025;28;20050;-68
2023/06/18 03:46:15;;;;;;;16.27;8.15;;;;;;;37.51;46.48;97713.06;4951133;28;20054;-68
2023/06/18 03:48:46;;;;;;;14.95;7.10;;;;;;;37.86;42.80;97715.84;4968076;28;20054;-68
2023/06/18 03:51:16;;;;;;;13.57;6.55;;;;;;;37.80;43.48;97716.66;4968415;28;20601;-68
2023/06/18 03:53:46;;;;;;;18.80;7.15;;;;;;;37.57;41.82;97715.09;4951683;28;20147;-68
2023/06/18 03:56:16;;;;;;;14.82;7.35;;;;;;;37.81;43.05;97715.44;4965868;28;20340;-68
2023/06/18 03:58:48;;;;;;;15.55;7.18;;;;;;;37.68;44.15;97713.09;4969089;28;20042;-68
2023/06/18 04:01:18;;;;;;;16.60;6.78;;;;;;;37.66;45.75;97711.94;4975856;28;20089;-68
2023/06/18 04:03:47;;;;;;;15.05;6.82;;;;;;;37.97;43.96;97708.38;4936211;28;20046;-70
2023/06/18 04:06:17;;;;;;;13.95;7.03;;;;;;;37.64;45.20;97719.81;4966544;28;20054;-69
2023/06/18 04:08:46;;;;;;;17.55;6.57;;;;;;;37.41;44.19;97719.38;4969185;28;20164;-71
2023/06/18 04:11:16;;;;;;;10.65;6.50;;;;;;;37.34;44.55;97718.19;4958487;28;20058;-69
2023/06/18 04:13:45;;;;;;;10.55;5.70;;;;;;;37.71;44.23;97714.28;4966541;28;20046;-69
2023/06/18 04:16:16;;;;;;;15.40;5.53;;;;;;;37.22;42.48;97723.31;4966612;28;20050;-68
2023/06/18 04:18:47;;;;;;;13.32;5.43;;;;;;;37.67;43.06;97722.56;4968258;28;20061;-69
2023/06/18 04:21:16;;;;;;;8.75;5.07;;;;;;;38.25;44.67;97715.81;4946916;28;20053;-69
2023/06/18 04:23:46;;;;;;;8.65;4.15;;;;;;;37.86;41.72;97718.63;4966309;28;20449;-69
2023/06/18 04:26:15;;;;;;;12.30;5.78;;;;;;;38.27;41.97;97709.88;4960623;28;20046;-68
2023/06/18 04:28:45;;;;;;;11.98;4.70;;;;;;;38.32;41.90;97715.00;4963650;28;20051;-69
2023/06/18 04:31:14;;;;;;;15.82;5.43;;;;;;;38.60;42.74;97712.97;4962031;28;20063;-68
2023/06/18 04:33:45;;;;;;;16.08;5.97;;;;;;;38.18;41.71;97711.09;4950356;28;20134;-69
2023/06/18 04:36:15;;;;;;;13.02;5.38;;;;;;;38.61;41.88;97713.75;4964819;28;20117;-68
2023/06/18 04:38:50;;;;;;;19.40;5.90;;;;;;;38.13;41.79;97710.72;4961088;28;20137;-68
2023/06/18 04:41:20;;;;;;;13.15;5.43;;;;;;;37.74;41.65;97717.06;4957107;28;20692;-69
2023/06/18 04:43:50;;;;;;;9.10;5.03;;;;;;;37.47;42.75;97713.06;4964157;28;20058;-69
2023/06/18 04:46:20;;;;;;;14.07;5.45;;;;;;;37.44;41.58;97705.56;4961788;28;20136;-69
2023/06/18 04:48:50;;;;;;;10.30;4.57;;;;;;;37.77;41.13;97712.69;4953685;28;20118;-69
2023/06/18 04:51:20;;;;;;;13.45;4.60;;;;;;;37.29;42.05;97709.50;4953935;28;20068;-70
2023/06/18 04:53:50;;;;;;;14.98;4.50;;;;;;;37.97;43.33;97711.16;4953278;28;20055;-68
2023/06/18 04:56:19;;;;;;;14.88;4.47;;;;;;;37.70;40.18;97710.75;4936697;28;20107;-69
2023/06/18 04:58:49;;;;;;;7.70;4.50;;;;;;;38.26;40.13;97705.53;4955467;28;20714;-69
2023/06/18 05:01:20;;;;;;;8.55;4.72;;;;;;;38.40;42.28;97703.53;4938899;28;20390;-69
2023/06/18 05:03:50;;;;;;;18.88;4.93;;;;;;;38.22;43.66;97708.31;4954867;28;20062;-69
2023/06/18 05:06:20;;;;;;;10.75;4.35;;;;;;;38.01;39.89;97709.16;4956996;28;20491;-69
2023/06/18 05:08:50;;;;;;;10.25;3.95;;;;;;;38.33;37.78;97706.28;4953202;28;20078;-69
2023/06/18 05:11:19;;;;;;;7.38;3.78;;;;;;;38.28;38.54;97697.63;4956415;28;20059;-69
2023/06/18 05:13:49;;;;;;;10.43;4.63;;;;;;;38.39;40.68;97701.16;4955811;28;20487;-69
2023/06/18 05:16:19;;;;;;;10.43;3.95;;;;;;;38.09;38.37;97699.66;4955121;28;20137;-69
2023/06/18 05:18:48;;;;;;;10.50;4.13;;;;;;;38.84;39.31;97705.75;4952077;28;20055;-69
2023/06/18 05:21:18;;;;;;;8.02;3.45;;;;;;;39.22;35.76;97708.69;4956663;28;20050;-69
2023/06/18 05:23:48;;;;;;;9.13;3.67;;;;;;;39.31;35.98;97700.75;4928592;28;20051;-68
2023/06/18 05:26:23;;;;;;;6.85;3.40;;;;;;;39.39;37.54;97703.06;4932648;28;20129;-69
2023/06/18 05:28:55;;;;;;;9.25;3.90;;;;;;;39.21;37.38;97694.09;4951858;28;20089;-72
2023/06/18 05:31:26;;;;;;;6.40;3.40;;;;;;;39.47;39.58;97689.97;4935316;28;20055;-75
2023/06/18 05:34:10;;;;;;;8.95;3.35;;;;;;;38.83;37.67;97695.84;4956085;28;20092;-71
2023/06/18 05:37:02;;;;;;;11.88;3.88;;;;;;;39.03;39.26;97696.97;4942657;28;20054;-71
2023/06/18 05:40:00;;;;;;;8.23;4.20;;;;;;;38.61;39.03;97691.59;4929744;28;20039;-73
2023/06/18 05:42:50;;;;;;;12.30;3.97;;;;;;;38.65;38.89;97693.16;4954403;28;20062;-71
2023/06/18 05:45:20;;;;;;;11.13;3.70;;;;;;;38.84;39.47;97694.66;4942538;28;20066;-74
2023/06/18 05:47:50;;;;;;;9.13;3.60;;;;;;;38.78;39.70;97690.72;4955865;28;20082;-71
2023/06/18 05:50:32;;;;;;;10.57;3.60;;;;;;;38.70;40.15;97683.66;4941518;28;20375;-71
2023/06/18 05:53:02;;;;;;;8.35;4.10;;;;;;;38.59;38.28;97677.41;4959219;28;20043;-73
2023/06/18 05:55:32;;;;;;;12.30;3.97;;;;;;;38.49;38.45;97684.53;4965335;28;20855;-73
2023/06/18 05:58:02;;;;;;;9.70;3.67;;;;;;;38.12;38.25;97675.94;4951722;28;20630;-76
2023/06/18 06:00:32;;;;;;;8.00;3.90;;;;;;;38.41;38.38;97680.22;4977545;28;20055;-78
2023/06/18 06:03:02;;;;;;;12.20;3.88;;;;;;;38.38;40.28;97680.19;4960304;28;20047;-72
2023/06/18 06:05:32;;;;;;;13.27;4.00;;;;;;;38.32;39.37;97670.75;4940718;28;20552;-71
2023/06/18 06:08:02;;;;;;;10.25;3.95;;;;;;;38.09;36.09;97674.75;4959174;28;20403;-69
2023/06/18 06:10:34;;;;;;;11.20;3.75;;;;;;;38.08;39.88;97681.47;4957472;28;20050;-68
2023/06/18 06:13:06;;;;;;;7.50;3.75;;;;;;;38.35;39.77;97678.25;4958459;28;20047;-72
2023/06/18 06:15:41;;;;;;;8.82;3.30;;;;;;;38.37;39.61;97670.34;4957785;28;20047;-68
2023/06/18 06:18:11;;;;;;;7.15;3.42;;;;;;;38.19;39.05;97676.72;4959018;28;20058;-69
2023/06/18 06:20:44;;;;;;;5.47;3.25;;;;;;;38.08;39.46;97664.88;4957996;28;20153;-68
2023/06/18 06:23:14;;;;;;;10.93;3.65;;;;;;;38.28;39.19;97661.66;4958287;28;20539;-70
2023/06/18 06:25:44;;;;;;;14.35;3.83;;;;;;;38.01;37.98;97664.91;4958604;28;20050;-67
2023/06/18 06:28:14;;;;;;;6.57;3.65;;;;;;;38.17;40.21;97665.25;4962705;28;20062;-68
2023/06/18 06:30:44;;;;;;;6.05;3.30;;;;;;;37.89;39.15;97662.50;4963808;28;20455;-69
2023/06/18 06:33:15;;;;;;;8.77;3.65;;;;;;;38.04;38.63;97664.09;4958540;28;20050;-69
2023/06/18 06:35:46;;;;;;;5.32;3.38;;;;;;;38.34;38.62;97647.00;4963119;28;20049;-66
2023/06/18 06:38:17;;;;;;;7.33;3.73;;;;;;;38.19;40.23;97649.06;4945284;28;20051;-72
2023/06/18 06:40:48;;;;;;;8.88;3.85;;;;;;;38.05;39.05;97648.31;4962587;28;20043;-72
2023/06/18 06:43:18;;;;;;;11.25;3.38;;;;;;;37.90;38.40;97647.50;4942614;28;20055;-73
2023/06/18 06:46:06;;;;;;;14.63;3.70;;;;;;;37.88;37.66;97644.38;4955994;28;20065;-73
2023/06/18 06:48:59;;;;;;;10.82;3.40;;;;;;;38.09;37.93;97638.81;4963772;28;20043;-74
2023/06/18 06:51:33;;;;;;;10.93;3.15;;;;;;;38.35;38.10;97645.03;4975202;28;20396;-72
2023/06/18 06:54:11;;;;;;;9.73;3.65;;;;;;;38.29;38.04;97633.59;4960406;28;20057;-73
2023/06/18 06:56:41;;;;;;;7.03;3.60;;;;;;;38.43;40.73;97632.78;4948283;28;20490;-71
2023/06/18 06:59:11;;;;;;;6.00;3.25;;;;;;;38.30;38.98;97621.34;4958395;28;20499;-71
2023/06/18 07:01:42;;;;;;;11.55;3.72;;;;;;;38.38;40.64;97625.63;4961815;28;20050;-72
2023/06/18 07:04:14;;;;;;;14.35;4.10;;;;;;;38.16;38.55;97618.63;4963880;28;20046;-73
2023/06/18 07:06:43;;;;;;;8.07;3.83;;;;;;;38.09;39.97;97616.69;4980345;28;20042;-73
2023/06/18 07:09:13;;;;;;;11.30;4.35;;;;;;;38.03;37.27;97618.28;4974557;28;20078;-74
2023/06/18 07:11:43;;;;;;;11.73;4.35;;;;;;;38.22;40.64;97609.53;4965935;28;20050;-74
2023/06/18 07:14:14;;;;;;;10.07;3.67;;;;;;;37.98;38.53;97613.16;4978340;28;20097;-73
2023/06/18 07:16:44;;;;;;;14.35;3.90;;;;;;;38.13;40.74;97611.91;4978086;28;20078;-73
2023/06/18 07:19:13;;;;;;;14.82;4.18;;;;;;;38.01;38.20;97609.59;4965744;28;20090;-69
2023/06/18 07:21:43;;;;;;;11.85;5.68;;;;;;;38.00;39.18;97607.22;4965449;28;20133;-71
2023/06/18 07:24:12;;;;;;;12.23;4.05;;;;;;;38.09;40.21;97596.53;4615244;28;10000286;-69
2023/06/18 07:26:42;;;;;;;12.18;4.38;;;;;;;38.27;39.42;97593.69;4964027;28;20042;-68
2023/06/18 07:29:12;;;;;;;13.63;5.10;;;;;;;38.20;41.07;97594.50;4962328;28;20050;-70
2023/06/18 07:31:42;;;;;;;12.23;5.07;;;;;;;37.95;39.95;97591.81;4979074;28;20113;-69
2023/06/18 07:34:11;;;;;;;11.63;4.70;;;;;;;37.87;43.32;97581.16;4966351;28;20042;-69
2023/06/18 07:36:41;;;;;;;13.60;5.63;;;;;;;38.05;40.29;97585.50;4980016;28;20045;-71
2023/06/18 07:39:10;;;;;;;10.80;4.63;;;;;;;37.96;39.90;97582.31;4966450;28;20148;-68
2023/06/18 07:41:41;;;;;;;9.70;4.40;;;;;;;38.13;42.07;97578.72;4952411;28;20430;-69
2023/06/18 07:44:11;;;;;;;10.32;4.38;;;;;;;37.93;39.87;97580.34;4978760;28;20034;-70
2023/06/18 07:46:42;;;;;;;14.63;5.03;;;;;;;38.02;42.97;97574.44;4971523;28;20043;-71
2023/06/18 07:49:16;;;;;;;14.13;4.65;;;;;;;38.01;40.18;97564.56;4958682;28;20540;-70
2023/06/18 07:51:47;;;;;;;14.93;4.88;;;;;;;37.89;38.81;97568.50;4977433;28;20057;-72
2023/06/18 07:54:17;;;;;;;16.73;5.28;;;;;;;37.73;39.87;97570.94;4970185;28;20108;-71
2023/06/18 07:56:47;;;;;;;13.95;5.03;;;;;;;37.83;39.84;97556.31;4972424;28;20042;-70
2023/06/18 07:59:17;;;;;;;12.75;4.45;;;;;;;37.78;40.43;97559.47;4951187;28;20050;-69
2023/06/18 08:01:47;;;;;;;15.95;4.75;;;;;;;37.95;40.24;97555.06;4953881;28;20050;-71
2023/06/18 08:04:16;;;;;;;19.00;4.60;;;;;;;37.76;38.10;97546.03;4972305;28;20129;-70
2023/06/18 08:06:48;;;;;;;11.77;4.68;;;;;;;37.99;40.44;97548.34;4970548;28;20070;-72
2023/06/18 08:09:19;;;;;;;14.57;4.55;;;;;;;37.79;37.59;97541.69;4967169;28;20054;-70
2023/06/18 08:11:51;;;;;;;14.43;4.68;;;;;;;37.70;40.04;97536.59;4936480;28;20057;-72
2023/06/18 08:14:24;;;;;;;15.50;4.82;;;;;;;37.40;40.27;97546.50;4930962;28;20050;-73
2023/06/18 08:17:00;;;;;;;13.68;4.75;;;;;;;37.27;40.58;97532.28;4957134;28;20059;-69
2023/06/18 08:19:33;;;;;;;11.15;4.68;;;;;;;37.34;40.28;97526.78;4945229;28;20101;-74
2023/06/18 08:22:06;;;;;;;16.65;5.57;;;;;;;37.50;42.59;97529.09;4955259;28;20042;-71
2023/06/18 08:24:35;;;;;;;11.68;4.85;;;;;;;37.25;39.56;97523.63;4971478;28;20054;-69
2023/06/18 08:27:06;;;;;;;11.43;5.00;;;;;;;37.30;40.28;97512.97;4958398;28;20097;-71
2023/06/18 08:29:36;;;;;;;11.20;4.13;;;;;;;37.23;39.58;97512.19;4976265;28;20057;-71
2023/06/18 08:32:06;;;;;;;11.98;4.22;;;;;;;37.35;42.60;97509.03;4958628;28;20061;-69
2023/06/18 08:34:42;;;;;;;12.15;4.53;;;;;;;37.27;40.09;97512.97;4972206;28;20770;-71
2023/06/18 08:37:12;;;;;;;12.10;4.25;;;;;;;37.29;39.95;97508.63;4957528;28;20110;-70
2023/06/18 08:39:42;;;;;;;9.50;4.35;;;;;;;37.17;40.79;97511.03;4967605;28;20152;-71
2023/06/18 08:42:17;;;;;;;9.20;4.30;;;;;;;37.18;39.72;97507.84;4950897;28;20054;-72
2023/06/18 08:44:48;;;;;;;13.98;4.50;;;;;;;37.07;40.31;97496.03;4967858;28;20627;-72
2023/06/18 08:47:19;;;;;;;9.48;4.03;;;;;;;37.04;40.02;97496.03;4974603;28;20043;-70
2023/06/18 08:49:51;;;;;;;14.40;4.28;;;;;;;37.11;40.28;97491.31;4973159;28;20121;-69
2023/06/18 08:52:23;;;;;;;10.80;4.67;;;;;;;37.10;40.70;97500.75;4963379;28;20138;-70
2023/06/18 08:54:54;;;;;;;17.80;4.38;;;;;;;37.20;39.74;97497.22;4964120;28;20042;-69
2023/06/18 08:57:27;;;;;;;11.63;4.15;;;;;;;37.28;40.15;97484.16;4960147;28;20064;-68
2023/06/18 08:59:59;;;;;;;17.83;4.38;;;;;;;37.31;42.13;97484.16;4957376;28;20042;-71
2023/06/18 09:02:29;;;;;;;14.13;5.70;;;;;;;37.08;40.02;97483.03;4976019;28;20065;-69
2023/06/18 09:05:03;;;;;;;13.02;4.38;;;;;;;36.92;38.72;97478.66;4972871;28;20078;-72
2023/06/18 09:07:35;;;;;;;15.40;5.22;;;;;;;37.08;39.52;97481.06;4965103;28;20050;-71
2023/06/18 09:10:05;;;;;;;9.35;4.30;;;;;;;37.01;41.72;97472.72;4974547;28;20466;-71
2023/06/18 09:12:35;;;;;;;11.23;4.45;;;;;;;36.89;40.15;97473.16;4955428;28;20039;-68
2023/06/18 09:15:06;;;;;;;14.55;5.40;;;;;;;36.81;39.75;97469.63;4962177;28;20046;-67
2023/06/18 09:17:38;;;;;;;10.90;4.60;;;;;;;36.88;40.20;97463.28;4970892;28;20077;-72
2023/06/18 09:20:13;;;;;;;16.30;4.97;;;;;;;36.92;39.50;97461.31;4961300;28;20050;-69
2023/06/18 09:22:47;;;;;;;10.02;4.40;;;;;;;37.00;40.40;97465.63;4956193;28;20846;-68
2023/06/18 09:25:21;;;;;;;11.60;5.53;;;;;;;36.89;40.76;97462.09;4971877;28;20058;-68
2023/06/18 09:27:56;;;;;;;13.18;4.50;;;;;;;36.73;41.23;97451.47;4962199;28;20060;-69
2023/06/18 09:30:26;;;;;;;12.88;4.68;;;;;;;36.74;41.89;97449.47;4967930;28;20093;-68
2023/06/18 09:32:59;;;;;;;15.63;5.30;;;;;;;36.76;41.46;97447.94;4976600;28;20050;-71
2023/06/18 09:35:31;;;;;;;13.05;4.88;;;;;;;36.85;41.58;97442.00;4970622;28;20046;-69
2023/06/18 09:38:09;;;;;;;12.73;5.10;;;;;;;36.85;41.23;97434.50;4971908;28;20058;-69
2023/06/18 09:40:41;;;;;;;12.60;5.22;;;;;;;36.89;42.65;97426.22;4973926;28;20760;-70
2023/06/18 09:43:11;;;;;;;11.27;4.93;;;;;;;36.94;41.95;97427.78;4969555;28;20057;-71
2023/06/18 09:45:41;;;;;;;16.35;5.45;;;;;;;36.91;42.47;97426.63;4968012;28;20480;-68
2023/06/18 09:48:12;;;;;;;9.70;4.70;;;;;;;36.99;43.57;97422.66;4942881;28;20378;-69
2023/06/18 09:50:45;;;;;;;12.85;5.22;;;;;;;37.01;43.08;97416.72;4957096;28;20047;-71
2023/06/18 09:53:18;;;;;;;10.25;4.60;;;;;;;37.05;43.37;97421.06;4970647;28;20054;-70
2023/06/18 09:55:48;;;;;;;18.77;5.50;;;;;;;37.00;42.56;97426.97;4976826;28;20061;-71
2023/06/18 09:58:18;;;;;;;13.30;4.78;;;;;;;36.91;41.31;97416.34;4951408;28;20051;-71
2023/06/18 10:01:08;;;;;;;11.85;4.90;;;;;;;36.83;41.51;97408.47;4976976;28;20844;-71
2023/06/18 10:03:39;;;;;;;8.32;4.13;;;;;;;36.86;41.48;97415.97;4970551;28;20109;-71
2023/06/18 10:06:16;;;;;;;7.68;3.90;;;;;;;36.85;42.40;97412.44;4973838;28;20042;-73
2023/06/18 10:08:50;;;;;;;10.68;5.10;;;;;;;36.75;42.31;97404.16;4974652;28;20097;-73
2023/06/18 10:11:21;;;;;;;14.25;4.80;;;;;;;36.66;43.08;97409.28;4976213;28;20066;-73
2023/06/18 10:13:56;;;;;;;12.63;5.57;;;;;;;36.58;42.97;97399.41;4958964;28;20050;-71
2023/06/18 10:16:29;;;;;;;15.05;5.68;;;;;;;36.50;43.37;97398.63;4970795;28;20053;-70
2023/06/18 10:19:29;;;;;;;16.60;5.85;;;;;;;36.48;44.04;97401.78;4970693;28;20063;-73
2023/06/18 10:22:05;;;;;;;8.65;4.20;;;;;;;36.48;44.03;97392.72;4962030;28;20077;-70
2023/06/18 10:24:56;;;;;;;10.95;4.95;;;;;;;36.50;43.02;97390.34;4956493;28;20046;-73
2023/06/18 10:27:27;;;;;;;13.10;5.22;;;;;;;36.45;44.60;97386.03;4954930;28;20060;-74
2023/06/18 10:29:58;;;;;;;13.88;5.88;;;;;;;36.48;44.37;97387.19;4968099;28;20138;-73
2023/06/18 10:32:30;;;;;;;14.95;6.10;;;;;;;36.47;44.91;97377.34;4957010;28;20489;-74
2023/06/18 10:35:03;;;;;;;14.75;6.82;;;;;;;36.45;45.33;97388.78;4977681;28;20131;-74
2023/06/18 10:37:35;;;;;;;10.40;5.43;;;;;;;36.47;45.64;97380.88;4965935;28;20474;-74
2023/06/18 10:40:06;;;;;;;20.70;5.57;;;;;;;36.47;45.43;97380.88;4977918;28;20074;-73
2023/06/18 10:42:35;;;;;;;13.57;6.53;;;;;;;36.56;44.76;97383.25;4945653;28;20055;-74
2023/06/18 10:45:15;;;;;;;18.95;6.18;;;;;;;36.55;45.11;97367.88;4976021;28;20584;-73
2023/06/18 10:47:45;;;;;;;15.25;6.50;;;;;;;36.56;45.76;97366.69;4959664;28;20054;-74
2023/06/18 10:50:16;;;;;;;15.55;5.70;;;;;;;36.59;46.56;97365.13;4954459;28;20357;-73
2023/06/18 10:52:51;;;;;;;18.85;6.18;;;;;;;36.59;45.39;97360.44;4976329;28;20336;-74
2023/06/18 10:55:24;;;;;;;14.02;6.10;;;;;;;36.61;46.67;97365.53;4936504;28;20058;-71
2023/06/18 10:58:05;;;;;;;15.50;6.18;;;;;;;36.57;46.11;97356.44;4947349;28;20564;-73
2023/06/18 11:00:36;;;;;;;11.82;5.25;;;;;;;36.52;46.69;97360.38;4607775;28;10000123;-69
2023/06/18 11:03:13;;;;;;;16.48;6.30;;;;;;;36.52;46.11;97354.06;4942046;28;20527;-71
2023/06/18 11:05:51;;;;;;;22.52;6.55;;;;;;;36.54;47.13;97351.72;4951206;28;20372;-71
2023/06/18 11:08:34;;;;;;;13.30;5.55;;;;;;;36.55;45.91;97347.78;4947000;28;20046;-72
2023/06/18 11:11:15;;;;;;;12.60;5.25;;;;;;;36.53;46.51;97341.88;4940190;28;20077;-69
2023/06/18 11:13:53;;;;;;;10.75;5.18;;;;;;;36.44;44.00;97348.56;4943414;28;20043;-69
2023/06/18 11:16:24;;;;;;;14.95;6.07;;;;;;;36.37;44.45;97343.06;4946429;28;20697;-70
2023/06/18 11:18:59;;;;;;;17.25;5.70;;;;;;;36.41;45.47;97335.59;4953202;28;20703;-69
2023/06/18 11:21:31;;;;;;;16.25;5.53;;;;;;;36.39;45.64;97339.91;4958040;28;20055;-71
2023/06/18 11:24:02;;;;;;;15.30;5.65;;;;;;;36.23;44.82;97334.81;4937638;28;20571;-71
2023/06/18 11:26:33;;;;;;;13.15;5.38;;;;;;;36.21;44.47;97345.44;4950934;28;20054;-69
2023/06/18 11:29:04;;;;;;;20.33;5.47;;;;;;;36.24;45.04;97336.38;4948831;28;20511;-71
2023/06/18 11:31:34;;;;;;;12.35;5.85;;;;;;;36.26;46.01;97341.50;4963210;28;20139;-70
2023/06/18 11:34:06;;;;;;;14.88;5.78;;;;;;;36.24;45.06;97333.63;4951748;28;20050;-74
2023/06/18 11:36:42;;;;;;;15.25;5.00;;;;;;;36.23;45.90;97337.56;4963099;28;20054;-74
2023/06/18 11:39:13;;;;;;;10.48;5.38;;;;;;;36.23;43.49;97340.31;4961340;28;20051;-73
2023/06/18 11:41:43;;;;;;;11.70;4.90;;;;;;;36.19;42.22;97339.53;4952568;28;20058;-73
2023/06/18 11:44:12;;;;;;;14.45;5.57;;;;;;;36.19;44.23;97342.28;4948997;28;20070;-72
2023/06/18 11:46:41;;;;;;;16.90;5.63;;;;;;;36.14;43.75;97341.88;4959170;28;20097;-74